sensor_id;sensor_type;location;lat;lon;timestamp;pressure;altitude;pressure_sealevel;temperature;humidity
24230;BME280;12362;50.004;8.006;2022-12-07T00:00:29;100812.69;;;3.43;100.00
24230;BME280;12362;50.004;8.006;2022-12-07T00:02:55;100801.59;;;3.42;100.00
24230;BME280;12362;50.004;8.006;2022-12-07T00:05:20;100810.91;;;3.46;100.00
24230;BME280;12362;50.004;8.006;2022-12-07T00:07:46;100805.78;;;3.46;100.00
24230;BME280;12362;50.004;8.006;2022-12-07T00:10:14;100815.22;;;3.46;100.00
24230;BME280;12362;50.004;8.006;2022-12-07T00:12:39;100812.59;;;3.50;100.00
24230;BME280;12362;50.004;8.006;2022-12-07T00:15:05;100796.28;;;3.54;100.00
24230;BME280;12362;50.004;8.006;2022-12-07T00:17:31;100793.69;;;3.56;100.00
24230;BME280;12362;50.004;8.006;2022-12-07T00:19:56;100794.53;;;3.58;100.00
24230;BME280;12362;50.004;8.006;2022-12-07T00:22:22;100786.78;;;3.59;100.00
24230;BME280;12362;50.004;8.006;2022-12-07T00:24:47;100784.25;;;3.58;100.00
24230;BME280;12362;50.004;8.006;2022-12-07T00:27:12;100779.13;;;3.58;100.00
24230;BME280;12362;50.004;8.006;2022-12-07T00:29:38;100775.69;;;3.58;100.00
24230;BME280;12362;50.004;8.006;2022-12-07T00:32:03;100773.94;;;3.59;100.00
24230;BME280;12362;50.004;8.006;2022-12-07T00:34:29;100763.72;;;3.56;100.00
24230;BME280;12362;50.004;8.006;2022-12-07T00:36:55;100752.66;;;3.53;100.00
24230;BME280;12362;50.004;8.006;2022-12-07T00:39:20;100761.22;;;3.52;100.00
24230;BME280;12362;50.004;8.006;2022-12-07T00:41:45;100779.19;;;3.52;100.00
24230;BME280;12362;50.004;8.006;2022-12-07T00:44:11;100785.19;;;3.51;100.00
24230;BME280;12362;50.004;8.006;2022-12-07T00:46:36;100769.03;;;3.46;100.00
24230;BME280;12362;50.004;8.006;2022-12-07T00:49:02;100770.88;;;3.36;100.00
24230;BME280;12362;50.004;8.006;2022-12-07T00:51:27;100772.66;;;3.31;100.00
24230;BME280;12362;50.004;8.006;2022-12-07T00:53:53;100770.94;;;3.32;100.00
24230;BME280;12362;50.004;8.006;2022-12-07T00:56:21;100769.25;;;3.28;100.00
24230;BME280;12362;50.004;8.006;2022-12-07T00:58:58;100762.44;;;3.28;100.00
24230;BME280;12362;50.004;8.006;2022-12-07T01:01:27;100758.91;;;3.35;100.00
24230;BME280;12362;50.004;8.006;2022-12-07T01:03:52;100757.19;;;3.34;100.00
24230;BME280;12362;50.004;8.006;2022-12-07T01:06:20;100758.91;;;3.37;100.00
24230;BME280;12362;50.004;8.006;2022-12-07T01:08:45;100760.53;;;3.42;100.00
24230;BME280;12362;50.004;8.006;2022-12-07T01:11:16;100751.09;;;3.43;100.00
24230;BME280;12362;50.004;8.006;2022-12-07T01:13:43;100750.25;;;3.42;100.00
24230;BME280;12362;50.004;8.006;2022-12-07T01:16:11;100739.13;;;3.43;100.00
24230;BME280;12362;50.004;8.006;2022-12-07T01:18:37;100748.56;;;3.41;100.00
24230;BME280;12362;50.004;8.006;2022-12-07T01:21:05;100748.50;;;3.44;100.00
24230;BME280;12362;50.004;8.006;2022-12-07T01:23:32;100745.13;;;3.42;100.00
24230;BME280;12362;50.004;8.006;2022-12-07T01:26:00;100745.91;;;3.49;100.00
24230;BME280;12362;50.004;8.006;2022-12-07T01:28:26;100743.28;;;3.50;100.00
24230;BME280;12362;50.004;8.006;2022-12-07T01:31:03;100739.81;;;3.53;100.00
24230;BME280;12362;50.004;8.006;2022-12-07T01:33:32;100733.81;;;3.55;100.00
24230;BME280;12362;50.004;8.006;2022-12-07T01:36:21;100742.31;;;3.58;100.00
24230;BME280;12362;50.004;8.006;2022-12-07T01:38:48;100750.78;;;3.63;100.00
24230;BME280;12362;50.004;8.006;2022-12-07T01:41:14;100751.63;;;3.62;100.00
24230;BME280;12362;50.004;8.006;2022-12-07T01:46:30;100754.25;;;3.61;100.00
24230;BME280;12362;50.004;8.006;2022-12-07T01:48:55;100749.94;;;3.63;100.00
24230;BME280;12362;50.004;8.006;2022-12-07T01:51:21;100744.81;;;3.63;100.00
24230;BME280;12362;50.004;8.006;2022-12-07T01:53:46;100741.41;;;3.61;100.00
24230;BME280;12362;50.004;8.006;2022-12-07T01:56:17;100739.63;;;3.64;100.00
24230;BME280;12362;50.004;8.006;2022-12-07T01:58:44;100731.09;;;3.64;100.00
24230;BME280;12362;50.004;8.006;2022-12-07T02:01:10;100735.41;;;3.62;100.00
24230;BME280;12362;50.004;8.006;2022-12-07T02:03:38;100726.94;;;3.56;100.00
24230;BME280;12362;50.004;8.006;2022-12-07T02:06:06;100728.69;;;3.54;100.00
24230;BME280;12362;50.004;8.006;2022-12-07T02:08:32;100726.03;;;3.58;100.00
24230;BME280;12362;50.004;8.006;2022-12-07T02:10:58;100726.91;;;3.58;100.00
24230;BME280;12362;50.004;8.006;2022-12-07T02:13:26;100721.75;;;3.60;100.00
24230;BME280;12362;50.004;8.006;2022-12-07T02:30:18;100725.81;;;3.73;100.00
24230;BME280;12362;50.004;8.006;2022-12-07T02:40:53;100714.75;;;3.69;100.00
24230;BME280;12362;50.004;8.006;2022-12-07T02:43:24;100711.28;;;3.72;100.00
24230;BME280;12362;50.004;8.006;2022-12-07T02:45:57;100720.63;;;3.76;100.00
24230;BME280;12362;50.004;8.006;2022-12-07T02:48:25;100714.69;;;3.74;100.00
24230;BME280;12362;50.004;8.006;2022-12-07T02:50:53;100710.28;;;3.80;100.00
24230;BME280;12362;50.004;8.006;2022-12-07T02:53:37;100706.81;;;3.83;100.00
24230;BME280;12362;50.004;8.006;2022-12-07T02:56:33;100706.03;;;3.79;100.00
24230;BME280;12362;50.004;8.006;2022-12-07T03:04:41;100699.81;;;3.92;100.00
24230;BME280;12362;50.004;8.006;2022-12-07T03:09:44;100698.16;;;3.90;100.00
24230;BME280;12362;50.004;8.006;2022-12-07T03:12:19;100693.00;;;3.90;100.00
24230;BME280;12362;50.004;8.006;2022-12-07T03:14:53;100695.59;;;3.90;100.00
24230;BME280;12362;50.004;8.006;2022-12-07T03:17:26;100692.94;;;3.94;100.00
24230;BME280;12362;50.004;8.006;2022-12-07T03:19:56;100697.19;;;3.95;100.00
24230;BME280;12362;50.004;8.006;2022-12-07T03:22:23;100688.63;;;3.95;100.00
24230;BME280;12362;50.004;8.006;2022-12-07T03:24:55;100688.53;;;4.01;100.00
24230;BME280;12362;50.004;8.006;2022-12-07T03:27:28;100689.38;;;4.01;100.00
24230;BME280;12362;50.004;8.006;2022-12-07T03:30:05;100694.47;;;4.03;100.00
24230;BME280;12362;50.004;8.006;2022-12-07T03:32:38;100691.03;;;4.05;100.00
24230;BME280;12362;50.004;8.006;2022-12-07T03:38:19;100681.41;;;4.16;100.00
24230;BME280;12362;50.004;8.006;2022-12-07T03:41:14;100682.13;;;4.21;100.00
24230;BME280;12362;50.004;8.006;2022-12-07T03:43:41;100673.56;;;4.22;100.00
24230;BME280;12362;50.004;8.006;2022-12-07T03:46:34;100673.47;;;4.27;100.00
24230;BME280;12362;50.004;8.006;2022-12-07T03:49:23;100683.66;;;4.33;100.00
24230;BME280;12362;50.004;8.006;2022-12-07T03:55:11;100673.19;;;4.42;100.00
24230;BME280;12362;50.004;8.006;2022-12-07T03:57:40;100662.91;;;4.42;100.00
24230;BME280;12362;50.004;8.006;2022-12-07T04:00:09;100662.91;;;4.42;100.00
24230;BME280;12362;50.004;8.006;2022-12-07T04:02:35;100662.78;;;4.47;100.00
24230;BME280;12362;50.004;8.006;2022-12-07T04:05:01;100657.66;;;4.46;100.00
24230;BME280;12362;50.004;8.006;2022-12-07T04:07:26;100657.66;;;4.46;100.00
24230;BME280;12362;50.004;8.006;2022-12-07T04:10:05;100654.22;;;4.47;100.00
24230;BME280;12362;50.004;8.006;2022-12-07T04:12:30;100653.34;;;4.48;100.00
24230;BME280;12362;50.004;8.006;2022-12-07T04:14:56;100651.59;;;4.50;100.00
24230;BME280;12362;50.004;8.006;2022-12-07T04:17:21;100652.41;;;4.52;100.00
24230;BME280;12362;50.004;8.006;2022-12-07T04:19:47;100649.06;;;4.48;100.00
24230;BME280;12362;50.004;8.006;2022-12-07T04:22:12;100647.28;;;4.50;100.00
24230;BME280;12362;50.004;8.006;2022-12-07T04:24:38;100645.63;;;4.49;100.00
24230;BME280;12362;50.004;8.006;2022-12-07T04:27:03;100652.41;;;4.52;100.00
24230;BME280;12362;50.004;8.006;2022-12-07T04:29:29;100654.22;;;4.48;100.00
24230;BME280;12362;50.004;8.006;2022-12-07T04:31:54;100658.38;;;4.52;100.00
24230;BME280;12362;50.004;8.006;2022-12-07T04:34:20;100654.06;;;4.54;100.00
24230;BME280;12362;50.004;8.006;2022-12-07T04:36:46;100657.41;;;4.59;100.00
24230;BME280;12362;50.004;8.006;2022-12-07T04:39:26;100649.75;;;4.56;100.00
24230;BME280;12362;50.004;8.006;2022-12-07T04:41:52;100649.59;;;4.64;100.00
24230;BME280;12362;50.004;8.006;2022-12-07T04:44:19;100647.91;;;4.63;100.00
24230;BME280;12362;50.004;8.006;2022-12-07T04:46:45;100656.47;;;4.62;100.00
24230;BME280;12362;50.004;8.006;2022-12-07T04:49:12;100658.22;;;4.60;100.00
24230;BME280;12362;50.004;8.006;2022-12-07T04:51:38;100655.59;;;4.63;100.00
24230;BME280;12362;50.004;8.006;2022-12-07T04:54:04;100657.25;;;4.65;100.00
24230;BME280;12362;50.004;8.006;2022-12-07T04:56:30;100654.69;;;4.65;100.00
24230;BME280;12362;50.004;8.006;2022-12-07T04:58:55;100660.69;;;4.64;100.00
24230;BME280;12362;50.004;8.006;2022-12-07T05:01:21;100653.81;;;4.66;100.00
24230;BME280;12362;50.004;8.006;2022-12-07T05:03:47;100651.13;;;4.71;100.00
24230;BME280;12362;50.004;8.006;2022-12-07T05:06:13;100656.28;;;4.71;100.00
24230;BME280;12362;50.004;8.006;2022-12-07T05:08:38;100651.19;;;4.69;100.00
24230;BME280;12362;50.004;8.006;2022-12-07T05:11:10;100651.09;;;4.74;100.00
24230;BME280;12362;50.004;8.006;2022-12-07T05:13:54;100652.81;;;4.73;100.00
24230;BME280;12362;50.004;8.006;2022-12-07T05:16:20;100656.28;;;4.72;100.00
24230;BME280;12362;50.004;8.006;2022-12-07T05:18:45;100660.53;;;4.73;100.00
24230;BME280;12362;50.004;8.006;2022-12-07T05:21:10;100651.03;;;4.77;100.00
24230;BME280;12362;50.004;8.006;2022-12-07T05:23:36;100663.00;;;4.78;100.00
24230;BME280;12362;50.004;8.006;2022-12-07T05:26:01;100663.84;;;4.78;100.00
24230;BME280;12362;50.004;8.006;2022-12-07T05:28:26;100660.34;;;4.82;100.00
24230;BME280;12362;50.004;8.006;2022-12-07T05:30:52;100669.69;;;4.85;100.00
24230;BME280;12362;50.004;8.006;2022-12-07T05:33:17;100668.72;;;4.90;100.00
24230;BME280;12362;50.004;8.006;2022-12-07T05:35:42;100665.22;;;4.94;100.00
24230;BME280;12362;50.004;8.006;2022-12-07T05:38:08;100652.41;;;4.91;100.00
24230;BME280;12362;50.004;8.006;2022-12-07T05:40:33;100651.47;;;4.95;100.00
24230;BME280;12362;50.004;8.006;2022-12-07T05:42:59;100654.03;;;4.95;100.00
24230;BME280;12362;50.004;8.006;2022-12-07T05:45:24;100654.00;;;4.97;100.00
24230;BME280;12362;50.004;8.006;2022-12-07T05:47:50;100656.56;;;4.97;100.00
24230;BME280;12362;50.004;8.006;2022-12-07T05:50:15;100659.09;;;4.98;100.00
24230;BME280;12362;50.004;8.006;2022-12-07T05:52:40;100660.00;;;4.97;100.00
24230;BME280;12362;50.004;8.006;2022-12-07T05:55:06;100662.69;;;4.91;100.00
24230;BME280;12362;50.004;8.006;2022-12-07T05:57:32;100666.25;;;4.86;100.00
24230;BME280;12362;50.004;8.006;2022-12-07T05:59:57;100672.22;;;4.86;100.00
24230;BME280;12362;50.004;8.006;2022-12-07T06:02:23;100672.16;;;4.91;100.00
24230;BME280;12362;50.004;8.006;2022-12-07T06:04:48;100671.34;;;4.87;100.00
24230;BME280;12362;50.004;8.006;2022-12-07T06:07:15;100669.81;;;4.80;100.00
24230;BME280;12362;50.004;8.006;2022-12-07T06:09:41;100658.84;;;4.72;100.00
24230;BME280;12362;50.004;8.006;2022-12-07T06:12:10;100657.97;;;4.72;100.00
24230;BME280;12362;50.004;8.006;2022-12-07T06:14:54;100664.97;;;4.67;100.00
24230;BME280;12362;50.004;8.006;2022-12-07T06:17:19;100660.78;;;4.61;100.00
24230;BME280;12362;50.004;8.006;2022-12-07T06:19:44;100658.28;;;4.58;100.00
24230;BME280;12362;50.004;8.006;2022-12-07T06:22:10;100669.50;;;4.54;100.00
24230;BME280;12362;50.004;8.006;2022-12-07T06:24:37;100666.13;;;4.51;100.00
24230;BME280;12362;50.004;8.006;2022-12-07T06:27:03;100661.94;;;4.47;100.00
24230;BME280;12362;50.004;8.006;2022-12-07T06:29:30;100661.97;;;4.46;100.00
24230;BME280;12362;50.004;8.006;2022-12-07T06:31:55;100662.06;;;4.41;100.00
24230;BME280;12362;50.004;8.006;2022-12-07T06:34:22;100673.19;;;4.42;100.00
24230;BME280;12362;50.004;8.006;2022-12-07T06:36:48;100674.91;;;4.41;100.00
24230;BME280;12362;50.004;8.006;2022-12-07T06:39:18;100664.59;;;4.44;100.00
24230;BME280;12362;50.004;8.006;2022-12-07T06:41:44;100672.25;;;4.46;100.00
24230;BME280;12362;50.004;8.006;2022-12-07T06:44:09;100672.19;;;4.48;100.00
24230;BME280;12362;50.004;8.006;2022-12-07T06:46:34;100669.63;;;4.47;100.00
24230;BME280;12362;50.004;8.006;2022-12-07T06:49:04;100674.03;;;4.42;100.00
24230;BME280;12362;50.004;8.006;2022-12-07T06:51:30;100674.88;;;4.44;100.00
24230;BME280;12362;50.004;8.006;2022-12-07T06:53:55;100680.75;;;4.49;100.00
24230;BME280;12362;50.004;8.006;2022-12-07T06:56:21;100677.16;;;4.56;100.00
24230;BME280;12362;50.004;8.006;2022-12-07T06:58:48;100681.44;;;4.57;100.00
24230;BME280;12362;50.004;8.006;2022-12-07T07:01:15;100686.50;;;4.60;100.00
24230;BME280;12362;50.004;8.006;2022-12-07T07:03:42;100690.72;;;4.64;100.00
24230;BME280;12362;50.004;8.006;2022-12-07T07:06:08;100681.28;;;4.64;100.00
24230;BME280;12362;50.004;8.006;2022-12-07T07:08:35;100684.63;;;4.69;100.00
24230;BME280;12362;50.004;8.006;2022-12-07T07:11:00;100696.53;;;4.73;100.00
24230;BME280;12362;50.004;8.006;2022-12-07T07:13:26;100696.53;;;4.73;100.00
24230;BME280;12362;50.004;8.006;2022-12-07T07:15:52;100681.03;;;4.76;100.00
24230;BME280;12362;50.004;8.006;2022-12-07T07:18:18;100693.94;;;4.75;100.00
24230;BME280;12362;50.004;8.006;2022-12-07T07:20:43;100698.41;;;4.65;100.00
24230;BME280;12362;50.004;8.006;2022-12-07T07:23:09;100690.75;;;4.62;100.00
24230;BME280;12362;50.004;8.006;2022-12-07T07:25:34;100698.38;;;4.67;100.00
24230;BME280;12362;50.004;8.006;2022-12-07T07:28:00;100711.25;;;4.65;100.00
24230;BME280;12362;50.004;8.006;2022-12-07T07:30:26;100692.53;;;4.59;100.00
24230;BME280;12362;50.004;8.006;2022-12-07T07:32:58;100702.88;;;4.56;100.00
24230;BME280;12362;50.004;8.006;2022-12-07T07:35:25;100702.81;;;4.60;100.00
24230;BME280;12362;50.004;8.006;2022-12-07T07:37:51;100705.44;;;4.56;100.00
24230;BME280;12362;50.004;8.006;2022-12-07T07:40:16;100717.66;;;4.47;100.00
24230;BME280;12362;50.004;8.006;2022-12-07T07:42:42;100712.56;;;4.44;100.00
24230;BME280;12362;50.004;8.006;2022-12-07T07:45:07;100710.03;;;4.42;100.00
24230;BME280;12362;50.004;8.006;2022-12-07T07:47:33;100711.63;;;4.46;100.00
24230;BME280;12362;50.004;8.006;2022-12-07T07:49:58;100710.84;;;4.43;100.00
24230;BME280;12362;50.004;8.006;2022-12-07T07:52:24;100713.72;;;4.28;100.00
24230;BME280;12362;50.004;8.006;2022-12-07T07:54:49;100714.97;;;4.06;100.00
24230;BME280;12362;50.004;8.006;2022-12-07T07:57:16;100711.78;;;3.93;100.00
24230;BME280;12362;50.004;8.006;2022-12-07T07:59:42;100706.59;;;3.95;100.00
24230;BME280;12362;50.004;8.006;2022-12-07T08:02:14;100714.31;;;3.95;100.00
24230;BME280;12362;50.004;8.006;2022-12-07T08:04:39;100705.81;;;3.91;100.00
24230;BME280;12362;50.004;8.006;2022-12-07T08:07:05;100707.34;;;4.01;100.00
24230;BME280;12362;50.004;8.006;2022-12-07T08:09:30;100704.59;;;4.10;100.00
24230;BME280;12362;50.004;8.006;2022-12-07T08:11:56;100709.63;;;4.18;100.00
24230;BME280;12362;50.004;8.006;2022-12-07T08:14:22;100699.34;;;4.18;100.00
24230;BME280;12362;50.004;8.006;2022-12-07T08:16:48;100705.31;;;4.20;100.00
24230;BME280;12362;50.004;8.006;2022-12-07T08:19:13;100704.47;;;4.19;100.00
24230;BME280;12362;50.004;8.006;2022-12-07T08:21:39;100693.31;;;4.19;100.00
24230;BME280;12362;50.004;8.006;2022-12-07T08:24:04;100706.97;;;4.22;100.00
24230;BME280;12362;50.004;8.006;2022-12-07T08:26:33;100708.53;;;4.31;100.00
24230;BME280;12362;50.004;8.006;2022-12-07T08:28:59;100714.44;;;4.36;100.00
24230;BME280;12362;50.004;8.006;2022-12-07T08:31:25;100715.44;;;4.27;100.00
24230;BME280;12362;50.004;8.006;2022-12-07T08:33:53;100713.41;;;4.44;100.00
24230;BME280;12362;50.004;8.006;2022-12-07T08:36:18;100712.94;;;4.66;100.00
24230;BME280;12362;50.004;8.006;2022-12-07T08:38:44;100712.50;;;4.89;100.00
24230;BME280;12362;50.004;8.006;2022-12-07T08:41:10;100711.38;;;5.00;100.00
24230;BME280;12362;50.004;8.006;2022-12-07T08:43:36;100712.88;;;5.10;100.00
24230;BME280;12362;50.004;8.006;2022-12-07T08:48:53;100721.00;;;5.30;100.00
24230;BME280;12362;50.004;8.006;2022-12-07T08:51:20;100724.38;;;5.34;100.00
24230;BME280;12362;50.004;8.006;2022-12-07T08:53:47;100718.22;;;5.39;100.00
24230;BME280;12362;50.004;8.006;2022-12-07T08:56:13;100719.84;;;5.43;100.00
24230;BME280;12362;50.004;8.006;2022-12-07T08:58:38;100721.56;;;5.42;100.00
24230;BME280;12362;50.004;8.006;2022-12-07T09:01:05;100718.06;;;5.45;100.00
24230;BME280;12362;50.004;8.006;2022-12-07T09:03:30;100723.97;;;5.50;100.00
24230;BME280;12362;50.004;8.006;2022-12-07T09:05:57;100719.56;;;5.55;100.00
24230;BME280;12362;50.004;8.006;2022-12-07T09:08:27;100720.34;;;5.57;100.00
24230;BME280;12362;50.004;8.006;2022-12-07T09:10:56;100719.53;;;5.56;100.00
24230;BME280;12362;50.004;8.006;2022-12-07T09:13:21;100720.22;;;5.63;100.00
24230;BME280;12362;50.004;8.006;2022-12-07T09:15:47;100728.78;;;5.63;100.00
24230;BME280;12362;50.004;8.006;2022-12-07T09:18:13;100715.03;;;5.64;100.00
24230;BME280;12362;50.004;8.006;2022-12-07T09:20:38;100720.16;;;5.66;100.00
24230;BME280;12362;50.004;8.006;2022-12-07T09:23:06;100718.03;;;5.84;100.00
24230;BME280;12362;50.004;8.006;2022-12-07T09:25:32;100722.53;;;6.10;100.00
24230;BME280;12362;50.004;8.006;2022-12-07T09:27:58;100726.09;;;6.37;100.00
24230;BME280;12362;50.004;8.006;2022-12-07T09:30:24;100722.69;;;6.35;100.00
24230;BME280;12362;50.004;8.006;2022-12-07T09:32:49;100725.75;;;6.18;100.00
24230;BME280;12362;50.004;8.006;2022-12-07T09:35:15;100721.28;;;6.24;100.00
24230;BME280;12362;50.004;8.006;2022-12-07T09:37:40;100721.56;;;6.45;100.00
24230;BME280;12362;50.004;8.006;2022-12-07T09:40:06;100717.28;;;6.44;100.00
24230;BME280;12362;50.004;8.006;2022-12-07T09:42:34;100716.19;;;6.53;100.00
24230;BME280;12362;50.004;8.006;2022-12-07T09:45:01;100721.28;;;6.56;100.00
24230;BME280;12362;50.004;8.006;2022-12-07T09:47:28;100716.25;;;6.80;100.00
24230;BME280;12362;50.004;8.006;2022-12-07T09:50:04;100703.25;;;7.12;100.00
24230;BME280;12362;50.004;8.006;2022-12-07T09:52:30;100695.38;;;7.17;100.00
24230;BME280;12362;50.004;8.006;2022-12-07T09:54:57;100692.34;;;7.31;100.00
24230;BME280;12362;50.004;8.006;2022-12-07T09:57:31;100685.47;;;7.03;100.00
24230;BME280;12362;50.004;8.006;2022-12-07T10:00:01;100689.75;;;7.31;100.00
24230;BME280;12362;50.004;8.006;2022-12-07T10:02:40;100676.53;;;7.68;100.00
24230;BME280;12362;50.004;8.006;2022-12-07T10:05:12;100675.66;;;7.67;100.00
24230;BME280;12362;50.004;8.006;2022-12-07T10:07:38;100669.84;;;7.87;100.00
24230;BME280;12362;50.004;8.006;2022-12-07T10:10:09;100666.28;;;8.15;100.00
24230;BME280;12362;50.004;8.006;2022-12-07T10:15:43;100660.22;;;7.40;100.00
24230;BME280;12362;50.004;8.006;2022-12-07T10:18:19;100667.31;;;7.33;100.00
24230;BME280;12362;50.004;8.006;2022-12-07T10:20:46;100665.41;;;7.11;100.00
24230;BME280;12362;50.004;8.006;2022-12-07T10:23:17;100659.84;;;7.24;100.00
24230;BME280;12362;50.004;8.006;2022-12-07T10:25:42;100658.91;;;7.27;100.00
24230;BME280;12362;50.004;8.006;2022-12-07T10:30:59;100664.38;;;7.17;100.00
24230;BME280;12362;50.004;8.006;2022-12-07T10:33:33;100654.03;;;7.18;100.00
24230;BME280;12362;50.004;8.006;2022-12-07T10:36:00;100649.53;;;7.24;100.00
24230;BME280;12362;50.004;8.006;2022-12-07T10:38:44;100642.72;;;7.22;100.00
24230;BME280;12362;50.004;8.006;2022-12-07T10:41:10;100634.47;;;7.37;100.00
24230;BME280;12362;50.004;8.006;2022-12-07T10:43:35;100638.25;;;7.53;100.00
24230;BME280;12362;50.004;8.006;2022-12-07T10:51:46;100624.72;;;8.21;100.00
24230;BME280;12362;50.004;8.006;2022-12-07T10:54:19;100615.94;;;8.25;100.00
24230;BME280;12362;50.004;8.006;2022-12-07T11:02:23;100616.06;;;8.45;100.00
24230;BME280;12362;50.004;8.006;2022-12-07T11:18:32;100618.78;;;7.93;100.00
24230;BME280;12362;50.004;8.006;2022-12-07T11:21:32;100618.56;;;7.75;100.00
24230;BME280;12362;50.004;8.006;2022-12-07T11:24:16;100618.78;;;7.69;100.00
24230;BME280;12362;50.004;8.006;2022-12-07T11:38:16;100607.34;;;7.50;100.00
24230;BME280;12362;50.004;8.006;2022-12-07T11:40:49;100615.25;;;7.71;100.00
24230;BME280;12362;50.004;8.006;2022-12-07T11:43:32;100604.75;;;7.76;100.00
24230;BME280;12362;50.004;8.006;2022-12-07T11:46:05;100597.31;;;7.67;100.00
24230;BME280;12362;50.004;8.006;2022-12-07T11:48:38;100597.72;;;7.79;100.00
24230;BME280;12362;50.004;8.006;2022-12-07T11:51:09;100594.19;;;7.82;100.00
24230;BME280;12362;50.004;8.006;2022-12-07T11:53:39;100583.75;;;7.85;100.00
24230;BME280;12362;50.004;8.006;2022-12-07T12:06:40;100583.78;;;7.59;100.00
24230;BME280;12362;50.004;8.006;2022-12-07T12:09:11;100578.63;;;7.59;100.00
24230;BME280;12362;50.004;8.006;2022-12-07T12:12:02;100575.69;;;7.69;100.00
24230;BME280;12362;50.004;8.006;2022-12-07T12:23:11;100558.28;;;7.74;100.00
24230;BME280;12362;50.004;8.006;2022-12-07T12:25:59;100547.78;;;7.54;100.00
24230;BME280;12362;50.004;8.006;2022-12-07T12:33:37;100529.22;;;8.15;100.00
24230;BME280;12362;50.004;8.006;2022-12-07T12:46:57;100506.81;;;8.81;100.00
24230;BME280;12362;50.004;8.006;2022-12-07T12:51:56;100500.28;;;8.50;100.00
24230;BME280;12362;50.004;8.006;2022-12-07T12:54:24;100505.22;;;8.77;100.00
24230;BME280;12362;50.004;8.006;2022-12-07T12:59:32;100509.69;;;8.31;100.00
24230;BME280;12362;50.004;8.006;2022-12-07T13:08:00;100501.22;;;8.03;100.00
24230;BME280;12362;50.004;8.006;2022-12-07T13:13:35;100497.97;;;7.98;100.00
24230;BME280;12362;50.004;8.006;2022-12-07T13:23:34;100490.25;;;7.74;100.00
24230;BME280;12362;50.004;8.006;2022-12-07T13:28:37;100486.84;;;7.73;100.00
24230;BME280;12362;50.004;8.006;2022-12-07T13:33:54;100497.69;;;7.58;100.00
24230;BME280;12362;50.004;8.006;2022-12-07T13:36:24;100498.91;;;7.48;100.00
24230;BME280;12362;50.004;8.006;2022-12-07T13:38:56;100498.03;;;7.49;100.00
24230;BME280;12362;50.004;8.006;2022-12-07T13:41:26;100496.38;;;7.47;100.00
24230;BME280;12362;50.004;8.006;2022-12-07T13:44:03;100495.59;;;7.45;100.00
24230;BME280;12362;50.004;8.006;2022-12-07T13:47:12;100501.66;;;7.44;100.00
24230;BME280;12362;50.004;8.006;2022-12-07T13:49:52;100497.34;;;7.44;100.00
24230;BME280;12362;50.004;8.006;2022-12-07T13:52:22;100499.03;;;7.45;100.00
24230;BME280;12362;50.004;8.006;2022-12-07T13:54:59;100496.75;;;7.36;100.00
24230;BME280;12362;50.004;8.006;2022-12-07T13:57:27;100496.38;;;7.22;100.00
24230;BME280;12362;50.004;8.006;2022-12-07T13:59:53;100487.53;;;7.29;100.00
24230;BME280;12362;50.004;8.006;2022-12-07T14:02:26;100486.78;;;7.26;100.00
24230;BME280;12362;50.004;8.006;2022-12-07T14:07:49;100490.63;;;7.39;100.00
24230;BME280;12362;50.004;8.006;2022-12-07T14:10:26;100488.94;;;7.38;100.00
24230;BME280;12362;50.004;8.006;2022-12-07T14:12:52;100487.25;;;7.37;100.00
24230;BME280;12362;50.004;8.006;2022-12-07T14:15:21;100490.47;;;7.43;100.00
24230;BME280;12362;50.004;8.006;2022-12-07T14:17:53;100499.25;;;7.39;100.00
24230;BME280;12362;50.004;8.006;2022-12-07T14:20:39;100495.38;;;7.26;100.00
24230;BME280;12362;50.004;8.006;2022-12-07T14:23:06;100496.69;;;7.38;100.00
24230;BME280;12362;50.004;8.006;2022-12-07T14:25:48;100489.75;;;7.40;100.00
24230;BME280;12362;50.004;8.006;2022-12-07T14:28:28;100491.75;;;7.32;100.00
24230;BME280;12362;50.004;8.006;2022-12-07T14:30:54;100491.28;;;7.21;100.00
24230;BME280;12362;50.004;8.006;2022-12-07T14:33:20;100488.63;;;7.22;100.00
24230;BME280;12362;50.004;8.006;2022-12-07T14:35:46;100493.09;;;7.18;100.00
24230;BME280;12362;50.004;8.006;2022-12-07T14:38:11;100486.56;;;7.08;100.00
24230;BME280;12362;50.004;8.006;2022-12-07T14:40:38;100488.63;;;6.98;100.00
24230;BME280;12362;50.004;8.006;2022-12-07T14:43:15;100487.47;;;6.81;100.00
24230;BME280;12362;50.004;8.006;2022-12-07T14:45:41;100486.84;;;6.73;100.00
24230;BME280;12362;50.004;8.006;2022-12-07T14:48:16;100488.59;;;6.72;100.00
24230;BME280;12362;50.004;8.006;2022-12-07T14:50:49;100488.63;;;6.71;100.00
24230;BME280;12362;50.004;8.006;2022-12-07T14:53:17;100499.09;;;6.66;100.00
24230;BME280;12362;50.004;8.006;2022-12-07T14:55:43;100496.91;;;6.54;100.00
24230;BME280;12362;50.004;8.006;2022-12-07T14:58:16;100491.09;;;6.48;100.00
24230;BME280;12362;50.004;8.006;2022-12-07T15:00:42;100495.59;;;6.41;100.00
24230;BME280;12362;50.004;8.006;2022-12-07T15:03:07;100490.63;;;6.35;100.00
24230;BME280;12362;50.004;8.006;2022-12-07T15:05:33;100497.72;;;6.29;100.00
24230;BME280;12362;50.004;8.006;2022-12-07T15:07:58;100492.72;;;6.23;100.00
24230;BME280;12362;50.004;8.006;2022-12-07T15:10:27;100488.50;;;6.21;100.00
24230;BME280;12362;50.004;8.006;2022-12-07T15:12:55;100487.69;;;6.20;100.00
24230;BME280;12362;50.004;8.006;2022-12-07T15:15:41;100489.25;;;6.24;100.00
24230;BME280;12362;50.004;8.006;2022-12-07T15:18:06;100488.22;;;6.29;100.00
24230;BME280;12362;50.004;8.006;2022-12-07T15:20:32;100485.41;;;6.38;100.00
24230;BME280;12362;50.004;8.006;2022-12-07T15:22:57;100482.00;;;6.36;100.00
24230;BME280;12362;50.004;8.006;2022-12-07T15:25:23;100484.22;;;6.21;100.00
24230;BME280;12362;50.004;8.006;2022-12-07T15:27:48;100482.34;;;5.97;100.00